createdAt,value
2018-12-12T00:00:03.136Z,966.16
2018-12-12T00:01:03.081Z,966.15
2018-12-12T00:02:03.028Z,966.14
2018-12-12T00:03:02.975Z,966.19
2018-12-12T00:04:02.916Z,966.19
2018-12-12T00:05:02.871Z,966.21
2018-12-12T00:06:02.835Z,966.15
2018-12-12T00:07:02.756Z,966.14
2018-12-12T00:08:02.873Z,966.20
2018-12-12T00:09:02.647Z,966.15
2018-12-12T00:10:02.591Z,966.12
2018-12-12T00:11:02.540Z,966.16
2018-12-12T00:12:02.487Z,966.17
2018-12-12T00:13:02.432Z,966.17
2018-12-12T00:14:02.375Z,966.19
2018-12-12T00:15:02.342Z,966.17
2018-12-12T00:16:02.268Z,966.11
2018-12-12T00:17:02.394Z,966.13
2018-12-12T00:18:02.156Z,966.16
2018-12-12T00:19:02.105Z,966.16
2018-12-12T00:20:02.074Z,966.15
2018-12-12T00:21:01.999Z,966.16
2018-12-12T00:22:01.941Z,966.14
2018-12-12T00:23:01.888Z,966.18
2018-12-12T00:24:01.855Z,966.15
2018-12-12T00:25:01.779Z,966.16
2018-12-12T00:26:01.890Z,966.18
2018-12-12T00:27:01.668Z,966.21
2018-12-12T00:28:01.620Z,966.19
2018-12-12T00:29:01.562Z,966.19
2018-12-12T00:30:01.507Z,966.22
2018-12-12T00:31:01.453Z,966.18
2018-12-12T00:32:01.401Z,966.25
2018-12-12T00:33:01.368Z,966.22
2018-12-12T00:34:01.290Z,966.20
2018-12-12T00:35:01.396Z,966.20
2018-12-12T00:36:01.183Z,966.16
2018-12-12T00:37:01.126Z,966.15
2018-12-12T00:38:01.072Z,966.09
2018-12-12T00:39:01.020Z,966.05
2018-12-12T00:40:00.969Z,965.99
2018-12-12T00:41:00.908Z,966.03
2018-12-12T00:42:00.869Z,965.99
2018-12-12T00:43:00.803Z,965.96
2018-12-12T00:44:00.791Z,965.96
2018-12-12T00:45:00.698Z,965.99
2018-12-12T00:46:00.641Z,965.97
2018-12-12T00:47:00.588Z,965.94
2018-12-12T00:48:00.533Z,965.98
2018-12-12T00:49:00.476Z,965.95
2018-12-12T00:50:00.423Z,966.03
2018-12-12T00:51:00.393Z,966.01
2018-12-12T00:52:00.315Z,966.02
2018-12-12T00:53:00.489Z,966.02
2018-12-12T00:54:00.254Z,966.06
2018-12-12T00:55:00.153Z,966.12
2018-12-12T00:56:00.098Z,966.14
2018-12-12T00:57:00.044Z,966.14
2018-12-12T00:57:59.988Z,966.18
2018-12-12T00:58:59.935Z,966.17
2018-12-12T00:59:59.902Z,966.21
2018-12-12T01:00:59.826Z,966.20
2018-12-12T01:02:00.002Z,966.20
2018-12-12T01:02:59.802Z,966.22
2018-12-12T01:03:59.664Z,966.22
2018-12-12T01:04:59.612Z,966.22
2018-12-12T01:05:59.554Z,966.25
2018-12-12T01:06:59.503Z,966.28
2018-12-12T01:07:59.447Z,966.28
2018-12-12T01:08:59.415Z,966.30
2018-12-12T01:09:59.340Z,966.31
2018-12-12T01:10:59.506Z,966.27
2018-12-12T01:11:59.235Z,966.28
2018-12-12T01:12:59.176Z,966.30
2018-12-12T01:13:59.122Z,966.28
2018-12-12T01:14:59.070Z,966.31
2018-12-12T01:15:59.023Z,966.36
2018-12-12T01:16:58.960Z,966.32
2018-12-12T01:17:58.912Z,966.28
2018-12-12T01:18:58.855Z,966.30
2018-12-12T01:19:58.825Z,966.34
2018-12-12T01:20:58.800Z,966.36
2018-12-12T01:21:58.913Z,966.29
2018-12-12T01:22:58.634Z,966.38
2018-12-12T01:23:58.579Z,966.39
2018-12-12T01:24:58.528Z,966.36
2018-12-12T01:25:58.476Z,966.40
2018-12-12T01:26:58.421Z,966.34
2018-12-12T01:27:58.364Z,966.37
2018-12-12T01:28:58.308Z,966.38
2018-12-12T01:29:58.256Z,966.34
2018-12-12T01:30:58.410Z,966.37
2018-12-12T01:31:58.151Z,966.39
2018-12-12T01:32:58.093Z,966.39
2018-12-12T01:33:58.040Z,966.44
2018-12-12T01:34:57.986Z,966.43
2018-12-12T01:35:57.930Z,966.41
2018-12-12T01:36:57.879Z,966.40
2018-12-12T01:37:57.845Z,966.43
2018-12-12T01:38:57.769Z,966.38
2018-12-12T01:39:57.909Z,966.40
2018-12-12T01:40:57.660Z,966.40
2018-12-12T01:41:57.609Z,966.39
2018-12-12T01:42:57.553Z,966.40
2018-12-12T01:43:57.499Z,966.44
2018-12-12T01:44:57.450Z,966.42
2018-12-12T01:45:57.392Z,966.43
2018-12-12T01:46:57.359Z,966.41
2018-12-12T01:47:57.283Z,966.44
2018-12-12T01:48:57.420Z,966.41
2018-12-12T01:49:57.173Z,966.42
2018-12-12T01:50:57.119Z,966.41
2018-12-12T01:51:57.066Z,966.42
2018-12-12T01:52:57.011Z,966.46
2018-12-12T01:53:56.960Z,966.43
2018-12-12T01:54:56.905Z,966.46
2018-12-12T01:55:56.914Z,966.47
2018-12-12T01:56:56.795Z,966.48
2018-12-12T01:57:56.925Z,966.46
2018-12-12T01:58:56.689Z,966.47
2018-12-12T01:59:56.636Z,966.47
2018-12-12T02:00:56.580Z,966.44
2018-12-12T02:01:56.525Z,966.41
2018-12-12T02:02:56.470Z,966.39
2018-12-12T02:03:56.417Z,966.46
2018-12-12T02:04:56.363Z,966.41
2018-12-12T02:05:56.310Z,966.35
2018-12-12T02:06:56.432Z,966.36
2018-12-12T02:07:56.205Z,966.41
2018-12-12T02:08:56.150Z,966.39
2018-12-12T02:09:56.096Z,966.40
2018-12-12T02:10:56.042Z,966.42
2018-12-12T02:11:55.986Z,966.40
2018-12-12T02:12:55.931Z,966.43
2018-12-12T02:13:55.877Z,966.44
2018-12-12T02:14:55.826Z,966.43
2018-12-12T02:15:55.931Z,966.41
2018-12-12T02:16:55.716Z,966.44
2018-12-12T02:17:55.661Z,966.35
2018-12-12T02:18:55.615Z,966.39
2018-12-12T02:19:55.559Z,966.36
2018-12-12T02:20:55.501Z,966.38
2018-12-12T02:21:55.445Z,966.40
2018-12-12T02:22:55.391Z,966.38
2018-12-12T02:23:55.337Z,966.38
2018-12-12T02:24:55.444Z,966.38
2018-12-12T02:25:55.231Z,966.41
2018-12-12T02:26:55.175Z,966.36
2018-12-12T02:27:55.120Z,966.39
2018-12-12T02:28:55.065Z,966.34
2018-12-12T02:29:55.013Z,966.34
2018-12-12T02:30:54.986Z,966.33
2018-12-12T02:31:54.905Z,966.31
2018-12-12T02:32:54.850Z,966.34
2018-12-12T02:33:54.935Z,966.30
2018-12-12T02:34:54.749Z,966.28
2018-12-12T02:35:54.687Z,966.24
2018-12-12T02:36:54.644Z,966.24
2018-12-12T02:37:54.582Z,966.25
2018-12-12T02:38:54.536Z,966.23
2018-12-12T02:39:54.471Z,966.22
2018-12-12T02:40:54.419Z,966.20
2018-12-12T02:41:54.367Z,966.18
2018-12-12T02:42:54.548Z,966.19
2018-12-12T02:43:54.266Z,966.22
2018-12-12T02:44:54.291Z,966.21
2018-12-12T02:45:54.147Z,966.26
2018-12-12T02:46:54.094Z,966.26
2018-12-12T02:47:54.041Z,966.26
2018-12-12T02:48:53.984Z,966.28
2018-12-12T02:49:53.933Z,966.24
2018-12-12T02:50:53.877Z,966.25
2018-12-12T02:51:54.050Z,966.27
2018-12-12T02:52:53.769Z,966.18
2018-12-12T02:53:53.714Z,966.26
2018-12-12T02:54:53.660Z,966.19
2018-12-12T02:55:53.605Z,966.20
2018-12-12T02:56:53.552Z,966.17
2018-12-12T02:57:53.497Z,966.15
2018-12-12T02:58:53.443Z,966.15
2018-12-12T02:59:53.388Z,966.17
2018-12-12T03:00:53.326Z,966.15
2018-12-12T03:01:53.282Z,966.20
2018-12-12T03:02:53.460Z,966.20
2018-12-12T03:03:53.174Z,966.23
2018-12-12T03:04:53.118Z,966.21
2018-12-12T03:05:53.063Z,966.20
2018-12-12T03:06:53.012Z,966.20
2018-12-12T03:07:52.956Z,966.22
2018-12-12T03:08:52.905Z,966.22
2018-12-12T03:09:52.855Z,966.22
2018-12-12T03:10:52.796Z,966.18
2018-12-12T03:11:52.969Z,966.18
2018-12-12T03:12:52.687Z,966.17
2018-12-12T03:13:52.632Z,966.20
2018-12-12T03:14:52.578Z,966.17
2018-12-12T03:15:52.522Z,966.14
2018-12-12T03:16:52.469Z,966.11
2018-12-12T03:17:52.416Z,966.10
2018-12-12T03:18:52.366Z,966.11
2018-12-12T03:19:52.308Z,966.12
2018-12-12T03:20:52.455Z,966.09
2018-12-12T03:21:52.203Z,966.11
2018-12-12T03:22:52.150Z,966.11
2018-12-12T03:23:52.096Z,966.13
2018-12-12T03:24:52.037Z,966.07
2018-12-12T03:25:51.980Z,966.04
2018-12-12T03:26:51.928Z,966.07
2018-12-12T03:27:51.875Z,966.06
2018-12-12T03:28:51.824Z,966.05
2018-12-12T03:29:51.980Z,966.05
2018-12-12T03:30:51.713Z,966.03
2018-12-12T03:31:51.661Z,966.05
2018-12-12T03:32:51.606Z,966.06
2018-12-12T03:33:51.551Z,966.01
2018-12-12T03:34:51.497Z,966.02
2018-12-12T03:35:51.521Z,966.07
2018-12-12T03:36:51.393Z,966.04
2018-12-12T03:37:51.334Z,966.07
2018-12-12T03:38:51.483Z,966.06
2018-12-12T03:39:51.228Z,966.04
2018-12-12T03:40:51.172Z,966.02
2018-12-12T03:41:51.118Z,966.05
2018-12-12T03:42:51.064Z,966.05
2018-12-12T03:43:51.015Z,966.05
2018-12-12T03:44:50.962Z,966.05
2018-12-12T03:45:50.901Z,966.05
2018-12-12T03:46:50.849Z,966.07
2018-12-12T03:47:50.988Z,966.09
2018-12-12T03:48:50.739Z,966.09
2018-12-12T03:49:50.688Z,966.09
2018-12-12T03:50:50.632Z,966.09
2018-12-12T03:51:50.578Z,966.07
2018-12-12T03:52:50.522Z,966.09
2018-12-12T03:53:50.470Z,966.13
2018-12-12T03:54:50.445Z,966.12
2018-12-12T03:55:50.370Z,966.14
2018-12-12T03:56:50.492Z,966.13
2018-12-12T03:57:50.252Z,966.11
2018-12-12T03:58:50.201Z,966.11
2018-12-12T03:59:50.154Z,966.07
2018-12-12T04:00:50.091Z,966.08
2018-12-12T04:01:50.036Z,966.07
2018-12-12T04:02:49.985Z,966.06
2018-12-12T04:03:49.937Z,966.03
2018-12-12T04:04:49.875Z,966.08
2018-12-12T04:05:49.989Z,966.05
2018-12-12T04:06:49.764Z,966.07
2018-12-12T04:07:49.713Z,966.02
2018-12-12T04:08:49.659Z,966.03
2018-12-12T04:09:49.605Z,966.05
2018-12-12T04:10:49.552Z,966.03
2018-12-12T04:11:49.495Z,966.00
2018-12-12T04:12:49.447Z,965.97
2018-12-12T04:13:49.392Z,966.00
2018-12-12T04:14:49.482Z,965.97
2018-12-12T04:15:49.281Z,965.99
2018-12-12T04:16:49.226Z,965.99
2018-12-12T04:17:49.174Z,965.97
2018-12-12T04:18:49.118Z,965.99
2018-12-12T04:19:49.065Z,966.03
2018-12-12T04:20:49.009Z,965.99
2018-12-12T04:21:48.962Z,966.03
2018-12-12T04:22:48.905Z,965.98
2018-12-12T04:23:48.997Z,965.98
2018-12-12T04:24:48.794Z,966.05
2018-12-12T04:25:48.740Z,966.04
2018-12-12T04:26:48.686Z,966.02
2018-12-12T04:27:48.632Z,966.02
2018-12-12T04:28:48.577Z,966.00
2018-12-12T04:29:48.520Z,966.03
2018-12-12T04:30:48.498Z,966.05
2018-12-12T04:31:48.415Z,966.04
2018-12-12T04:32:48.596Z,966.06
2018-12-12T04:33:48.308Z,966.05
2018-12-12T04:34:48.253Z,966.01
2018-12-12T04:35:48.202Z,966.05
2018-12-12T04:36:48.145Z,966.06
2018-12-12T04:37:48.090Z,966.04
2018-12-12T04:38:48.039Z,966.04
2018-12-12T04:39:48.009Z,966.03
2018-12-12T04:40:47.928Z,966.00
2018-12-12T04:41:48.116Z,966.03
2018-12-12T04:42:47.821Z,965.98
2018-12-12T04:43:47.767Z,965.99
2018-12-12T04:44:47.712Z,965.97
2018-12-12T04:45:47.659Z,965.98
2018-12-12T04:46:47.609Z,965.98
2018-12-12T04:47:47.551Z,965.96
2018-12-12T04:48:47.521Z,966.00
2018-12-12T04:49:47.443Z,966.01
2018-12-12T04:50:47.604Z,966.03
2018-12-12T04:51:47.336Z,966.01
2018-12-12T04:52:47.289Z,966.01
2018-12-12T04:53:47.227Z,966.06
2018-12-12T04:54:47.174Z,966.11
2018-12-12T04:55:47.118Z,966.06
2018-12-12T04:56:47.064Z,966.06
2018-12-12T04:57:47.038Z,966.05
2018-12-12T04:58:46.957Z,966.08
2018-12-12T04:59:47.105Z,966.06
2018-12-12T05:00:46.852Z,966.03
2018-12-12T05:01:46.794Z,966.07
2018-12-12T05:02:46.751Z,966.07
2018-12-12T05:03:46.687Z,966.07
2018-12-12T05:04:46.633Z,966.08
2018-12-12T05:05:46.578Z,966.13
2018-12-12T05:06:46.550Z,966.08
2018-12-12T05:07:46.471Z,966.13
2018-12-12T05:08:46.617Z,966.12
2018-12-12T05:09:46.364Z,966.17
2018-12-12T05:10:46.307Z,966.17
2018-12-12T05:11:46.262Z,966.23
2018-12-12T05:12:46.201Z,966.19
2018-12-12T05:13:46.147Z,966.23
2018-12-12T05:14:46.093Z,966.27
2018-12-12T05:15:46.063Z,966.22
2018-12-12T05:16:45.985Z,966.22
2018-12-12T05:17:46.120Z,966.25
2018-12-12T05:18:45.880Z,966.23
2018-12-12T05:19:45.824Z,966.23
2018-12-12T05:20:45.770Z,966.22
2018-12-12T05:21:45.717Z,966.25
2018-12-12T05:22:45.661Z,966.23
2018-12-12T05:23:45.605Z,966.27
2018-12-12T05:24:45.579Z,966.23
2018-12-12T05:25:45.499Z,966.24
2018-12-12T05:26:45.613Z,966.26
2018-12-12T05:27:45.390Z,966.23
2018-12-12T05:28:45.334Z,966.23
2018-12-12T05:29:45.327Z,966.20
2018-12-12T05:30:45.228Z,966.22
2018-12-12T05:31:45.177Z,966.20
2018-12-12T05:32:45.120Z,966.24
2018-12-12T05:33:45.066Z,966.25
2018-12-12T05:34:45.012Z,966.23
2018-12-12T05:35:45.131Z,966.22
2018-12-12T05:36:44.902Z,966.21
2018-12-12T05:37:50.765Z,966.21
2018-12-12T05:38:44.795Z,966.19
2018-12-12T05:39:44.745Z,966.19
2018-12-12T05:40:44.785Z,966.23
2018-12-12T05:41:44.635Z,966.21
2018-12-12T05:42:44.608Z,966.20
2018-12-12T05:43:44.526Z,966.27
2018-12-12T05:44:44.621Z,966.23
2018-12-12T05:45:44.420Z,966.22
2018-12-12T05:46:44.364Z,966.25
2018-12-12T05:47:44.312Z,966.24
2018-12-12T05:48:44.255Z,966.23
2018-12-12T05:49:44.202Z,966.23
2018-12-12T05:50:44.148Z,966.22
2018-12-12T05:51:44.119Z,966.25
2018-12-12T05:52:44.043Z,966.26
2018-12-12T05:53:44.144Z,966.21
2018-12-12T05:54:43.932Z,966.24
2018-12-12T05:55:43.879Z,966.26
2018-12-12T05:56:43.825Z,966.30
2018-12-12T05:57:43.769Z,966.25
2018-12-12T05:58:43.714Z,966.29
2018-12-12T05:59:43.661Z,966.28
2018-12-12T06:00:43.634Z,966.29
2018-12-12T06:01:43.554Z,966.28
2018-12-12T06:02:43.727Z,966.27
2018-12-12T06:03:43.446Z,966.26
2018-12-12T06:04:43.389Z,966.30
2018-12-12T06:05:43.343Z,966.33
2018-12-12T06:06:43.286Z,966.29
2018-12-12T06:07:43.406Z,966.28
2018-12-12T06:08:43.176Z,966.34
2018-12-12T06:09:43.148Z,966.33
2018-12-12T06:10:43.068Z,966.36
2018-12-12T06:11:43.240Z,966.38
2018-12-12T06:12:42.960Z,966.33
2018-12-12T06:13:42.906Z,966.39
2018-12-12T06:14:42.854Z,966.39
2018-12-12T06:15:42.796Z,966.37
2018-12-12T06:16:42.740Z,966.37
2018-12-12T06:17:42.691Z,966.38
2018-12-12T06:18:42.662Z,966.35
2018-12-12T06:19:42.582Z,966.39
2018-12-12T06:20:42.756Z,966.39
2018-12-12T06:21:42.472Z,966.37
2018-12-12T06:22:42.417Z,966.36
2018-12-12T06:23:42.369Z,966.38
2018-12-12T06:24:42.308Z,966.38
2018-12-12T06:25:42.256Z,966.41
2018-12-12T06:26:42.201Z,966.37
2018-12-12T06:27:42.183Z,966.38
2018-12-12T06:28:42.088Z,966.44
2018-12-12T06:29:42.243Z,966.45
2018-12-12T06:30:41.996Z,966.45
2018-12-12T06:31:41.930Z,966.49
2018-12-12T06:32:41.875Z,966.46
2018-12-12T06:33:41.822Z,966.44
2018-12-12T06:34:41.769Z,966.44
2018-12-12T06:35:41.712Z,966.47
2018-12-12T06:36:41.657Z,966.44
2018-12-12T06:37:41.613Z,966.42
2018-12-12T06:38:41.560Z,966.44
2018-12-12T06:39:41.518Z,966.47
2018-12-12T06:40:41.445Z,966.49
2018-12-12T06:41:41.389Z,966.47
2018-12-12T06:42:41.335Z,966.49
2018-12-12T06:43:41.282Z,966.49
2018-12-12T06:44:41.230Z,966.52
2018-12-12T06:45:41.178Z,966.50
2018-12-12T06:46:41.121Z,966.50
2018-12-12T06:47:41.070Z,966.52
2018-12-12T06:48:41.018Z,966.53
2018-12-12T06:49:40.957Z,966.51
2018-12-12T06:50:40.901Z,966.48
2018-12-12T06:51:40.856Z,966.46
2018-12-12T06:52:40.812Z,966.49
2018-12-12T06:53:40.747Z,966.51
2018-12-12T06:54:40.708Z,966.49
2018-12-12T06:55:40.782Z,966.47
2018-12-12T06:56:40.693Z,966.51
2018-12-12T06:57:40.529Z,966.44
2018-12-12T06:58:40.476Z,966.45
2018-12-12T06:59:40.421Z,966.44
2018-12-12T07:00:40.369Z,966.50
2018-12-12T07:01:40.320Z,966.47
2018-12-12T07:02:40.261Z,966.47
2018-12-12T07:03:40.203Z,966.48
2018-12-12T07:04:40.151Z,966.50
2018-12-12T07:05:40.100Z,966.56
2018-12-12T07:06:40.045Z,966.48
2018-12-12T07:07:39.989Z,966.52
2018-12-12T07:08:39.934Z,966.54
2018-12-12T07:09:39.881Z,966.52
2018-12-12T07:10:39.833Z,966.56
2018-12-12T07:11:39.775Z,966.53
2018-12-12T07:12:39.719Z,966.59
2018-12-12T07:13:39.671Z,966.57
2018-12-12T07:14:39.622Z,966.56
2018-12-12T07:15:39.570Z,966.57
2018-12-12T07:16:39.511Z,966.57
2018-12-12T07:17:39.448Z,966.60
2018-12-12T07:18:39.395Z,966.60
2018-12-12T07:19:39.340Z,966.60
2018-12-12T07:20:39.286Z,966.66
2018-12-12T07:21:39.242Z,966.66
2018-12-12T07:22:39.180Z,966.69
2018-12-12T07:23:39.126Z,966.67
2018-12-12T07:24:39.069Z,966.69
2018-12-12T07:25:39.011Z,966.66
2018-12-12T07:26:38.962Z,966.66
2018-12-12T07:27:38.939Z,966.65
2018-12-12T07:28:38.857Z,966.61
2018-12-12T07:29:38.795Z,966.62
2018-12-12T07:30:38.741Z,966.63
2018-12-12T07:31:38.692Z,966.61
2018-12-12T07:32:38.639Z,966.60
2018-12-12T07:33:38.599Z,966.56
2018-12-12T07:34:38.531Z,966.57
2018-12-12T07:35:38.476Z,966.58
2018-12-12T07:36:38.421Z,966.62
2018-12-12T07:37:38.375Z,966.57
2018-12-12T07:38:38.315Z,966.57
2018-12-12T07:39:38.272Z,966.59
2018-12-12T07:40:38.200Z,966.59
2018-12-12T07:41:38.153Z,966.60
2018-12-12T07:42:38.099Z,966.58
2018-12-12T07:43:38.045Z,966.59
2018-12-12T07:44:38.005Z,966.55
2018-12-12T07:45:37.936Z,966.57
2018-12-12T07:46:37.882Z,966.59
2018-12-12T07:47:38.511Z,966.62
2018-12-12T07:48:37.923Z,966.61
2018-12-12T07:49:37.716Z,966.57
2018-12-12T07:50:37.660Z,966.53
2018-12-12T07:51:37.618Z,966.60
2018-12-12T07:52:37.575Z,966.55
2018-12-12T07:53:37.507Z,966.56
2018-12-12T07:54:37.465Z,966.58
2018-12-12T07:55:37.404Z,966.54
2018-12-12T07:56:37.371Z,966.55
2018-12-12T07:57:37.309Z,966.61
2018-12-12T07:58:37.266Z,966.56
2018-12-12T07:59:37.173Z,966.60
2018-12-12T08:00:37.120Z,966.56
2018-12-12T08:01:37.130Z,966.59
2018-12-12T08:02:37.034Z,966.55
2018-12-12T08:03:36.961Z,966.56
2018-12-12T08:04:36.927Z,966.56
2018-12-12T08:05:36.862Z,966.60
2018-12-12T08:06:36.805Z,966.59
2018-12-12T08:07:36.767Z,966.60
2018-12-12T08:08:36.701Z,966.61
2018-12-12T08:09:36.638Z,966.64
2018-12-12T08:10:36.592Z,966.63
2018-12-12T08:11:36.529Z,966.59
2018-12-12T08:12:36.505Z,966.58
2018-12-12T08:13:36.440Z,966.61
2018-12-12T08:14:36.368Z,966.60
2018-12-12T08:15:36.342Z,966.61
2018-12-12T08:16:36.275Z,966.59
2018-12-12T08:17:36.212Z,966.58
2018-12-12T08:18:36.159Z,966.59
2018-12-12T08:19:36.098Z,966.54
2018-12-12T08:20:36.044Z,966.59
2018-12-12T08:21:35.998Z,966.59
2018-12-12T08:22:35.947Z,966.57
2018-12-12T08:23:35.901Z,966.61
2018-12-12T08:24:35.836Z,966.62
2018-12-12T08:25:35.787Z,966.64
2018-12-12T08:26:35.730Z,966.64
2018-12-12T08:27:35.689Z,966.64
2018-12-12T08:28:35.618Z,966.64
2018-12-12T08:29:35.556Z,966.63
2018-12-12T08:30:35.540Z,966.68
2018-12-12T08:31:37.441Z,966.60
2018-12-12T08:32:35.418Z,966.60
2018-12-12T08:33:35.353Z,966.66
2018-12-12T08:34:35.315Z,966.64
2018-12-12T08:35:35.250Z,966.63
2018-12-12T08:36:35.220Z,966.69
2018-12-12T08:37:35.139Z,966.66
2018-12-12T08:38:35.088Z,966.67
2018-12-12T08:39:35.040Z,966.69
2018-12-12T08:40:34.972Z,966.72
2018-12-12T08:41:34.922Z,966.72
2018-12-12T08:42:34.879Z,966.70
2018-12-12T08:43:34.816Z,966.75
2018-12-12T08:44:34.758Z,966.74
2018-12-12T08:45:34.703Z,966.77
2018-12-12T08:46:34.668Z,966.77
2018-12-12T08:47:34.618Z,966.83
2018-12-12T08:48:34.554Z,966.91
2018-12-12T08:49:34.514Z,966.84
2018-12-12T08:50:34.456Z,966.87
2018-12-12T08:51:34.388Z,966.83
2018-12-12T08:52:34.348Z,966.79
2018-12-12T08:53:34.280Z,966.75
2018-12-12T08:54:34.234Z,966.78
2018-12-12T08:55:34.194Z,966.79
2018-12-12T08:56:34.138Z,966.78
2018-12-12T08:57:34.078Z,966.78
2018-12-12T08:58:34.029Z,966.79
2018-12-12T08:59:33.974Z,966.82
2018-12-12T09:00:33.929Z,966.83
2018-12-12T09:01:33.857Z,966.85
2018-12-12T09:02:33.815Z,966.88
2018-12-12T09:03:33.760Z,966.87
2018-12-12T09:04:33.720Z,966.90
2018-12-12T09:05:33.642Z,966.85
2018-12-12T09:06:33.593Z,966.81
2018-12-12T09:07:33.556Z,966.82
2018-12-12T09:08:33.494Z,966.84
2018-12-12T09:09:33.455Z,966.83
2018-12-12T09:10:33.375Z,966.85
2018-12-12T09:11:33.338Z,966.84
2018-12-12T09:12:33.288Z,966.85
2018-12-12T09:13:33.236Z,966.90
2018-12-12T09:14:33.180Z,966.90
2018-12-12T09:15:33.110Z,966.89
2018-12-12T09:16:33.072Z,966.85
2018-12-12T09:17:33.025Z,966.87
2018-12-12T09:18:32.961Z,966.82
2018-12-12T09:19:32.909Z,966.85
2018-12-12T09:20:32.863Z,966.85
2018-12-12T09:21:32.798Z,966.88
2018-12-12T09:22:32.769Z,966.84
2018-12-12T09:23:32.682Z,966.84
2018-12-12T09:24:32.625Z,966.81
2018-12-12T09:25:32.573Z,966.88
2018-12-12T09:26:32.519Z,966.88
2018-12-12T09:27:32.508Z,966.88
2018-12-12T09:28:32.413Z,966.90
2018-12-12T09:29:32.379Z,966.88
2018-12-12T09:30:32.308Z,966.84
2018-12-12T09:31:32.257Z,966.93
2018-12-12T09:32:32.210Z,966.88
2018-12-12T09:33:32.150Z,966.86
2018-12-12T09:34:32.100Z,966.90
2018-12-12T09:35:32.065Z,966.84
2018-12-12T09:36:32.018Z,966.87
2018-12-12T09:37:31.951Z,966.88
2018-12-12T09:38:31.895Z,966.88
2018-12-12T09:39:31.847Z,966.85
2018-12-12T09:40:31.798Z,966.83
2018-12-12T09:41:31.755Z,966.81
2018-12-12T09:42:31.695Z,966.78
2018-12-12T09:43:32.844Z,966.77
2018-12-12T09:44:31.593Z,966.74
2018-12-12T09:45:31.518Z,966.75
2018-12-12T09:46:31.478Z,966.76
2018-12-12T09:47:31.426Z,966.78
2018-12-12T09:48:31.372Z,966.75
2018-12-12T09:49:31.319Z,966.79
2018-12-12T09:50:31.264Z,966.71
2018-12-12T09:51:31.204Z,966.72
2018-12-12T09:52:31.170Z,966.68
2018-12-12T09:53:31.113Z,966.71
2018-12-12T09:54:31.053Z,966.71
2018-12-12T09:55:31.018Z,966.72
2018-12-12T09:56:30.932Z,966.69
2018-12-12T09:57:30.879Z,966.69
2018-12-12T09:58:30.846Z,966.70
2018-12-12T09:59:30.774Z,966.71
2018-12-12T10:00:30.720Z,966.69
2018-12-12T10:01:30.673Z,966.67
2018-12-12T10:02:30.613Z,966.67
2018-12-12T10:03:31.298Z,966.70
2018-12-12T10:04:30.509Z,966.68
2018-12-12T10:05:30.453Z,966.65
2018-12-12T10:06:30.402Z,966.64
2018-12-12T10:07:30.349Z,966.62
2018-12-12T10:08:30.298Z,966.64
2018-12-12T10:09:30.244Z,966.63
2018-12-12T10:10:30.191Z,966.65
2018-12-12T10:11:30.136Z,966.64
2018-12-12T10:12:30.085Z,966.63
2018-12-12T10:13:30.031Z,966.65
2018-12-12T10:14:29.979Z,966.66
2018-12-12T10:15:29.926Z,966.64
2018-12-12T10:16:29.871Z,966.65
2018-12-12T10:17:29.818Z,966.62
2018-12-12T10:18:29.771Z,966.63
2018-12-12T10:19:29.721Z,966.64
2018-12-12T10:20:29.664Z,966.62
2018-12-12T10:21:29.609Z,966.63
2018-12-12T10:22:29.557Z,966.65
2018-12-12T10:23:29.520Z,966.65
2018-12-12T10:24:29.448Z,966.64
2018-12-12T10:25:29.415Z,966.61
2018-12-12T10:26:29.350Z,966.61
2018-12-12T10:27:29.450Z,966.57
2018-12-12T10:28:29.233Z,966.58
2018-12-12T10:29:29.273Z,966.54
2018-12-12T10:30:29.132Z,966.61
2018-12-12T10:31:29.103Z,966.56
2018-12-12T10:32:29.029Z,966.56
2018-12-12T10:33:28.984Z,966.54
2018-12-12T10:34:29.036Z,966.51
2018-12-12T10:35:28.891Z,966.52
2018-12-12T10:36:28.868Z,966.48
2018-12-12T10:37:28.764Z,966.54
2018-12-12T10:38:28.711Z,966.49
2018-12-12T10:39:28.663Z,966.48
2018-12-12T10:40:28.612Z,966.53
2018-12-12T10:41:28.550Z,966.49
2018-12-12T10:42:28.527Z,966.50
2018-12-12T10:43:29.499Z,966.45
2018-12-12T10:44:28.565Z,966.51
2018-12-12T10:45:28.565Z,966.47
2018-12-12T10:46:28.278Z,966.47
2018-12-12T10:47:28.270Z,966.55
2018-12-12T10:48:29.068Z,966.49
2018-12-12T10:49:28.143Z,966.44
2018-12-12T10:50:28.079Z,966.43
2018-12-12T10:51:28.028Z,966.38
2018-12-12T10:52:27.999Z,966.43
2018-12-12T10:53:38.835Z,966.41
2018-12-12T10:54:27.892Z,966.36
2018-12-12T10:55:27.837Z,966.39
2018-12-12T10:56:27.770Z,966.40
2018-12-12T10:57:27.738Z,966.46
2018-12-12T10:58:28.681Z,966.41
2018-12-12T10:59:27.607Z,966.41
2018-12-12T11:00:27.546Z,966.43
2018-12-12T11:01:27.513Z,966.43
2018-12-12T11:02:27.593Z,966.44
2018-12-12T11:03:27.422Z,966.37
2018-12-12T11:04:27.815Z,966.41
2018-12-12T11:05:27.472Z,966.38
2018-12-12T11:06:27.247Z,966.38
2018-12-12T11:07:27.216Z,966.40
2018-12-12T11:08:34.029Z,966.39
2018-12-12T11:09:27.096Z,966.35
2018-12-12T11:10:27.020Z,966.35
2018-12-12T11:11:26.978Z,966.35
2018-12-12T11:12:26.910Z,966.32
2018-12-12T11:13:26.878Z,966.33
2018-12-12T11:14:26.843Z,966.32
2018-12-12T11:15:26.758Z,966.34
2018-12-12T11:16:26.726Z,966.34
2018-12-12T11:17:26.659Z,966.35
2018-12-12T11:18:26.600Z,966.35
2018-12-12T11:19:26.556Z,966.34
2018-12-12T11:20:26.495Z,966.33
2018-12-12T11:21:26.441Z,966.31
2018-12-12T11:22:26.388Z,966.35
2018-12-12T11:23:26.337Z,966.33
2018-12-12T11:24:26.297Z,966.35
2018-12-12T11:25:26.230Z,966.32
2018-12-12T11:26:26.206Z,966.33
2018-12-12T11:27:26.126Z,966.31
2018-12-12T11:28:26.085Z,966.31
2018-12-12T11:29:26.031Z,966.31
2018-12-12T11:30:25.970Z,966.28
2018-12-12T11:31:25.915Z,966.31
2018-12-12T11:32:25.863Z,966.32
2018-12-12T11:33:25.810Z,966.34
2018-12-12T11:34:25.760Z,966.32
2018-12-12T11:35:25.710Z,966.30
2018-12-12T11:36:25.654Z,966.25
2018-12-12T11:37:25.604Z,966.26
2018-12-12T11:38:25.552Z,966.24
2018-12-12T11:39:25.497Z,966.28
2018-12-12T11:40:25.445Z,966.26
2018-12-12T11:41:25.424Z,966.26
2018-12-12T11:42:25.337Z,966.24
2018-12-12T11:43:25.302Z,966.22
2018-12-12T11:44:25.232Z,966.21
2018-12-12T11:45:25.178Z,966.17
2018-12-12T11:46:25.127Z,966.21
2018-12-12T11:47:25.076Z,966.17
2018-12-12T11:48:25.026Z,966.17
2018-12-12T11:49:24.975Z,966.16
2018-12-12T11:50:24.941Z,966.15
2018-12-12T11:51:24.865Z,966.14
2018-12-12T11:52:24.817Z,966.16
2018-12-12T11:53:24.763Z,966.14
2018-12-12T11:54:24.725Z,966.14
2018-12-12T11:55:24.655Z,966.10
2018-12-12T11:56:24.618Z,966.09
2018-12-12T11:57:24.566Z,966.12
2018-12-12T11:58:24.498Z,966.11
2018-12-12T11:59:24.453Z,966.17
2018-12-12T12:00:24.392Z,966.15
2018-12-12T12:01:24.347Z,966.10
2018-12-12T12:02:24.328Z,966.07
2018-12-12T12:03:24.257Z,966.07
2018-12-12T12:04:24.187Z,966.10
2018-12-12T12:05:24.137Z,966.07
2018-12-12T12:06:24.082Z,966.07
2018-12-12T12:07:24.031Z,966.09
2018-12-12T12:08:23.977Z,966.09
2018-12-12T12:09:23.928Z,966.07
2018-12-12T12:10:23.867Z,966.09
2018-12-12T12:11:23.815Z,966.07
2018-12-12T12:12:23.760Z,966.08
2018-12-12T12:13:23.716Z,966.06
2018-12-12T12:14:23.657Z,966.09
2018-12-12T12:15:23.605Z,966.10
2018-12-12T12:16:23.551Z,966.09
2018-12-12T12:17:23.500Z,966.06
2018-12-12T12:18:23.456Z,966.06
2018-12-12T12:19:23.393Z,966.08
2018-12-12T12:20:23.341Z,965.99
2018-12-12T12:21:23.299Z,966.00
2018-12-12T12:22:23.236Z,966.00
2018-12-12T12:23:23.185Z,966.03
2018-12-12T12:24:24.325Z,965.99
2018-12-12T12:25:23.092Z,966.01
2018-12-12T12:26:23.026Z,966.00
2018-12-12T12:27:22.977Z,965.96